createdAt,value
2019-02-18T00:03:18.838Z,91.99
2019-02-18T00:08:14.024Z,92.94
2019-02-18T00:13:09.907Z,92.75
2019-02-18T00:18:05.409Z,93.37
2019-02-18T00:23:01.754Z,93.18
2019-02-18T00:27:57.391Z,93.37
2019-02-18T00:32:52.784Z,93.46
2019-02-18T00:37:48.607Z,93.18
2019-02-18T00:42:44.279Z,92.51
2019-02-18T00:47:39.909Z,92.51
2019-02-18T00:52:35.654Z,92.23
2019-02-18T00:57:31.455Z,91.94
2019-02-18T01:02:27.352Z,91.38
2019-02-18T01:07:23.322Z,91.85
2019-02-18T01:12:19.083Z,91.75
2019-02-18T01:17:14.590Z,92.71
2019-02-18T01:22:10.146Z,94.13
2019-02-18T01:27:05.575Z,94.37
2019-02-18T01:32:01.254Z,95.22
2019-02-18T01:36:56.656Z,95.51
2019-02-18T01:41:52.238Z,95.51
2019-02-18T01:46:47.886Z,96.26
2019-02-18T01:51:43.788Z,96.74
2019-02-18T01:56:39.397Z,96.55
2019-02-18T02:01:36.062Z,95.60
2019-02-18T02:06:31.477Z,95.79
2019-02-18T02:11:27.662Z,95.79
2019-02-18T02:16:23.436Z,95.70
2019-02-18T02:21:18.826Z,96.45
2019-02-18T02:26:14.502Z,96.74
2019-02-18T02:31:09.970Z,95.70
2019-02-18T02:36:05.677Z,96.36
2019-02-18T02:41:01.810Z,96.55
2019-02-18T02:45:57.340Z,97.12
2019-02-18T02:50:53.997Z,97.83
2019-02-18T02:55:49.348Z,98.59
2019-02-18T03:00:45.105Z,98.68
2019-02-18T03:05:40.777Z,99.54
2019-02-18T03:10:36.507Z,99.99
2019-02-18T03:15:33.014Z,99.99
2019-02-18T03:20:28.155Z,99.99
2019-02-18T03:25:24.771Z,99.99
2019-02-18T03:30:20.158Z,99.99
2019-02-18T03:35:15.713Z,99.99
2019-02-18T03:40:11.468Z,99.99
2019-02-18T03:45:07.000Z,99.99
2019-02-18T03:50:02.603Z,99.99
2019-02-18T03:54:57.868Z,99.99
2019-02-18T03:59:53.415Z,99.99
2019-02-18T04:04:49.051Z,99.99
2019-02-18T04:09:44.673Z,99.99
2019-02-18T04:14:40.612Z,99.99
2019-02-18T04:19:37.223Z,99.99
2019-02-18T04:24:33.604Z,99.99
2019-02-18T04:29:28.828Z,99.99
2019-02-18T04:34:24.200Z,99.99
2019-02-18T04:39:19.628Z,99.99
2019-02-18T04:44:15.100Z,99.99
2019-02-18T04:49:10.733Z,99.99
2019-02-18T04:54:06.526Z,99.99
2019-02-18T04:59:02.094Z,99.99
2019-02-18T05:03:57.833Z,99.99
2019-02-18T05:08:53.475Z,99.99
2019-02-18T05:13:49.317Z,99.99
2019-02-18T05:18:45.526Z,99.99
2019-02-18T05:23:41.079Z,99.99
2019-02-18T05:28:36.714Z,99.99
2019-02-18T05:33:32.403Z,99.99
2019-02-18T05:38:27.914Z,99.99
2019-02-18T05:43:23.565Z,99.99
2019-02-18T05:48:19.060Z,99.99
2019-02-18T05:53:14.648Z,99.99
2019-02-18T05:58:10.382Z,99.99
2019-02-18T06:03:07.036Z,99.99
2019-02-18T06:08:02.471Z,99.99
2019-02-18T06:12:58.037Z,99.99
2019-02-18T06:17:54.668Z,99.99
2019-02-18T06:22:50.080Z,99.99
2019-02-18T06:27:45.789Z,99.99
2019-02-18T06:32:41.115Z,99.99
2019-02-18T06:37:36.652Z,99.99
2019-02-18T06:42:32.376Z,99.99
2019-02-18T06:47:28.228Z,99.99
2019-02-18T06:52:23.802Z,99.99
2019-02-18T06:57:19.558Z,99.99
2019-02-18T07:02:15.277Z,99.99
2019-02-18T07:07:10.996Z,99.99
2019-02-18T07:12:07.696Z,99.99
2019-02-18T07:17:04.001Z,99.99
2019-02-18T07:21:59.416Z,99.99
2019-02-18T07:26:55.143Z,99.99
2019-02-18T07:31:50.773Z,99.99
2019-02-18T07:36:46.690Z,99.99
2019-02-18T07:41:42.439Z,99.99
2019-02-18T07:46:38.183Z,99.99
2019-02-18T07:51:34.925Z,99.99
2019-02-18T07:56:30.897Z,99.99
2019-02-18T08:01:27.701Z,99.99
2019-02-18T08:06:23.143Z,99.99
2019-02-18T08:11:18.482Z,99.99
2019-02-18T08:16:14.330Z,99.99
2019-02-18T08:21:10.187Z,99.49
2019-02-18T08:26:05.919Z,98.83
2019-02-18T08:31:01.695Z,98.54
2019-02-18T08:35:57.527Z,98.07
2019-02-18T08:40:53.255Z,96.93
2019-02-18T08:45:50.277Z,96.79
2019-02-18T08:50:47.017Z,95.94
2019-02-18T08:55:43.030Z,95.84
2019-02-18T09:00:40.392Z,95.17
2019-02-18T09:05:37.898Z,94.37
2019-02-18T09:10:34.103Z,92.75
2019-02-18T09:15:29.846Z,91.37
2019-02-18T09:20:27.044Z,90.33
2019-02-18T09:25:22.584Z,89.94
2019-02-18T09:30:18.585Z,89.89
2019-02-18T09:35:15.819Z,89.80
2019-02-18T09:40:11.231Z,88.13
2019-02-18T09:45:07.712Z,87.08
2019-02-18T09:50:03.867Z,85.03
2019-02-18T09:55:00.936Z,80.88
2019-02-18T09:59:57.685Z,78.88
2019-02-18T10:04:53.150Z,75.96
2019-02-18T10:09:50.367Z,73.81
2019-02-18T10:14:46.692Z,72.09
2019-02-18T10:19:43.170Z,71.91
2019-02-18T10:24:50.237Z,70.89
2019-02-18T10:29:39.111Z,70.03
2019-02-18T10:34:34.987Z,70.03
2019-02-18T10:39:31.054Z,69.31
2019-02-18T10:44:27.336Z,68.06
2019-02-18T10:49:23.428Z,67.52
2019-02-18T10:54:19.625Z,67.52
2019-02-18T10:59:15.596Z,65.64
2019-02-18T11:04:12.691Z,65.36
2019-02-18T11:09:09.221Z,63.57
2019-02-18T11:14:04.933Z,62.33
2019-02-18T11:19:00.827Z,61.60
2019-02-18T11:23:56.870Z,60.26
2019-02-18T11:28:52.929Z,60.45
2019-02-18T11:33:49.407Z,59.62
2019-02-18T11:38:45.647Z,59.72
2019-02-18T11:43:41.515Z,59.43
2019-02-18T11:48:37.622Z,58.09
2019-02-18T11:53:34.307Z,58.66
2019-02-18T11:58:30.009Z,59.05
2019-02-18T12:03:27.128Z,58.86
2019-02-18T12:08:23.898Z,57.23
2019-02-18T12:13:19.984Z,57.04
2019-02-18T12:18:17.050Z,55.98
2019-02-18T12:23:13.167Z,57.42
2019-02-18T12:28:08.911Z,56.77
2019-02-18T12:33:04.953Z,56.87
2019-02-18T12:38:00.836Z,55.82
2019-02-18T12:42:56.705Z,55.15
2019-02-18T12:47:52.349Z,55.46
2019-02-18T12:52:48.237Z,55.56
2019-02-18T12:57:45.487Z,54.89
2019-02-18T13:02:44.439Z,55.36
2019-02-18T13:07:39.130Z,55.15
2019-02-18T13:12:35.418Z,55.82
2019-02-18T13:17:32.177Z,55.15
2019-02-18T13:22:28.359Z,55.56
2019-02-18T13:27:24.224Z,54.96
2019-02-18T13:32:20.947Z,55.34
2019-02-18T13:37:16.773Z,53.93
2019-02-18T13:42:13.027Z,53.64
2019-02-18T13:47:09.444Z,53.36
2019-02-18T13:52:05.679Z,52.40
2019-02-18T13:57:08.206Z,51.63
2019-02-18T14:02:01.110Z,51.92
2019-02-18T14:06:57.226Z,51.18
2019-02-18T14:11:53.147Z,49.16
2019-02-18T14:16:49.228Z,49.65
2019-02-18T14:21:46.135Z,49.16
2019-02-18T14:26:41.923Z,49.16
2019-02-18T14:31:37.566Z,50.10
2019-02-18T14:36:33.198Z,50.10
2019-02-18T14:41:29.221Z,48.95
2019-02-18T14:46:24.929Z,49.05
2019-02-18T14:51:21.850Z,48.57
2019-02-18T14:56:17.714Z,48.95
2019-02-18T15:01:13.426Z,48.95
2019-02-18T15:06:10.198Z,49.43
2019-02-18T15:11:05.539Z,51.44
2019-02-18T15:16:00.937Z,49.91
2019-02-18T15:20:57.753Z,49.14
2019-02-18T15:25:53.250Z,48.93
2019-02-18T15:30:49.456Z,49.11
2019-02-18T15:35:45.181Z,49.98
2019-02-18T15:40:40.588Z,49.98
2019-02-18T15:45:36.527Z,50.17
2019-02-18T15:50:32.339Z,50.15
2019-02-18T15:55:28.396Z,50.72
2019-02-18T16:00:24.024Z,50.15
2019-02-18T16:05:19.709Z,50.72
2019-02-18T16:10:15.433Z,51.29
2019-02-18T16:15:11.407Z,51.48
2019-02-18T16:20:07.054Z,53.08
2019-02-18T16:25:02.843Z,52.80
2019-02-18T16:29:59.465Z,53.37
2019-02-18T16:34:56.465Z,54.97
2019-02-18T16:39:52.878Z,56.02
2019-02-18T16:44:49.210Z,55.93
2019-02-18T16:49:44.588Z,55.93
2019-02-18T16:54:41.011Z,57.33
2019-02-18T16:59:37.741Z,57.33
2019-02-18T17:04:33.332Z,57.71
2019-02-18T17:09:30.003Z,59.41
2019-02-18T17:14:25.286Z,59.78
2019-02-18T17:19:21.038Z,60.46
2019-02-18T17:24:17.599Z,61.19
2019-02-18T17:29:13.480Z,61.19
2019-02-18T17:34:10.986Z,61.95
2019-02-18T17:39:06.629Z,63.00
2019-02-18T17:44:03.433Z,62.34
2019-02-18T17:48:58.986Z,62.34
2019-02-18T17:53:55.617Z,62.43
2019-02-18T17:58:51.122Z,62.81
2019-02-18T18:03:47.545Z,63.10
2019-02-18T18:08:43.392Z,63.29
2019-02-18T18:13:40.566Z,62.91
2019-02-18T18:18:36.201Z,62.52
2019-02-18T18:23:32.336Z,62.59
2019-02-18T18:28:28.448Z,62.88
2019-02-18T18:33:25.143Z,62.97
2019-02-18T18:38:22.780Z,63.54
2019-02-18T18:43:18.007Z,63.54
2019-02-18T18:48:13.828Z,62.40
2019-02-18T18:53:09.743Z,62.49
2019-02-18T18:58:05.487Z,63.16
2019-02-18T19:03:02.355Z,63.99
2019-02-18T19:07:59.054Z,63.60
2019-02-18T19:12:54.302Z,64.28
2019-02-18T19:17:50.839Z,64.65
2019-02-18T19:22:46.149Z,65.52
2019-02-18T19:27:42.830Z,65.80
2019-02-18T19:32:38.216Z,66.15
2019-02-18T19:37:34.150Z,66.63
2019-02-18T19:42:29.861Z,67.10
2019-02-18T19:47:25.633Z,66.91
2019-02-18T19:52:21.340Z,67.48
2019-02-18T19:57:16.958Z,67.58
2019-02-18T20:02:12.449Z,68.53
2019-02-18T20:07:07.999Z,68.63
2019-02-18T20:12:05.231Z,69.45
2019-02-18T20:17:00.550Z,69.64
2019-02-18T20:21:56.842Z,71.36
2019-02-18T20:26:53.321Z,71.45
2019-02-18T20:31:49.099Z,72.97
2019-02-18T20:36:44.821Z,72.60
2019-02-18T20:41:41.906Z,73.26
2019-02-18T20:46:37.753Z,73.74
2019-02-18T20:51:34.206Z,74.21
2019-02-18T20:56:29.889Z,75.13
2019-02-18T21:01:26.921Z,75.99
2019-02-18T21:06:23.282Z,76.84
2019-02-18T21:11:18.966Z,78.17
2019-02-18T21:16:15.726Z,79.13
2019-02-18T21:21:11.254Z,80.08
2019-02-18T21:26:06.963Z,81.79
2019-02-18T21:31:03.458Z,82.18
2019-02-18T21:36:00.375Z,81.79
2019-02-18T21:40:55.907Z,83.32
2019-02-18T21:45:51.551Z,83.32
2019-02-18T21:50:47.283Z,84.08
2019-02-18T21:55:42.910Z,84.94
2019-02-18T22:00:38.837Z,85.89
2019-02-18T22:05:34.975Z,85.47
2019-02-18T22:10:30.802Z,86.04
2019-02-18T22:15:27.186Z,87.27
2019-02-18T22:20:23.749Z,87.18
2019-02-18T22:25:19.673Z,87.65
2019-02-18T22:30:15.713Z,88.13
2019-02-18T22:35:12.343Z,88.42
2019-02-18T22:40:07.810Z,88.60
2019-02-18T22:45:03.607Z,88.79
2019-02-18T22:50:00.283Z,89.84
2019-02-18T22:54:55.886Z,89.84
2019-02-18T22:59:52.519Z,90.42
2019-02-18T23:04:49.538Z,90.51
2019-02-18T23:09:46.396Z,90.99
2019-02-18T23:14:41.314Z,90.99
2019-02-18T23:19:37.994Z,91.65
2019-02-18T23:24:33.449Z,91.65
2019-02-18T23:29:29.393Z,91.51
2019-02-18T23:34:24.815Z,91.75
2019-02-18T23:39:20.961Z,91.94
2019-02-18T23:44:17.272Z,92.41
2019-02-18T23:49:13.252Z,92.18
2019-02-18T23:54:09.006Z,92.75
2019-02-18T23:59:04.637Z,93.04
